createdAt,value
2022-10-21T00:01:58.222Z,5.20
2022-10-21T00:04:25.883Z,5.13
2022-10-21T00:06:54.893Z,4.80
2022-10-21T00:09:22.565Z,5.20
2022-10-21T00:11:50.238Z,4.75
2022-10-21T00:14:17.907Z,4.68
2022-10-21T00:16:45.548Z,5.13
2022-10-21T00:19:13.306Z,4.85
2022-10-21T00:21:42.332Z,4.85
2022-10-21T00:24:11.443Z,4.50
2022-10-21T00:26:39.074Z,4.50
2022-10-21T00:29:06.714Z,5.05
2022-10-21T00:31:34.879Z,4.75
2022-10-21T00:34:02.532Z,4.68
2022-10-21T00:36:31.833Z,4.93
2022-10-21T00:38:59.475Z,5.43
2022-10-21T00:41:29.253Z,4.60
2022-10-21T00:44:00.201Z,4.47
2022-10-21T00:46:35.035Z,4.95
2022-10-21T00:49:07.054Z,5.03
2022-10-21T00:51:34.919Z,5.25
2022-10-21T00:54:03.749Z,5.00
2022-10-21T00:56:35.750Z,4.70
2022-10-21T00:59:05.789Z,4.80
2022-10-21T01:01:34.624Z,4.45
2022-10-21T01:04:03.819Z,4.50
2022-10-21T01:06:32.931Z,4.93
2022-10-21T01:09:01.553Z,4.57
2022-10-21T01:11:31.314Z,5.28
2022-10-21T01:14:37.356Z,5.25
2022-10-21T01:17:20.940Z,4.25
2022-10-21T01:20:21.668Z,4.53
2022-10-21T01:23:07.267Z,4.70
2022-10-21T01:25:54.788Z,4.45
2022-10-21T01:28:36.181Z,4.55
2022-10-21T01:31:11.172Z,5.55
2022-10-21T01:33:46.459Z,4.82
2022-10-21T01:36:27.471Z,5.20
2022-10-21T01:39:06.602Z,4.55
2022-10-21T01:41:41.100Z,4.97
2022-10-21T01:44:16.937Z,5.03
2022-10-21T01:46:49.904Z,4.82
2022-10-21T01:49:21.999Z,4.75
2022-10-21T01:51:49.975Z,5.25
2022-10-21T01:54:23.753Z,5.13
2022-10-21T01:56:52.457Z,5.07
2022-10-21T01:59:22.014Z,4.68
2022-10-21T02:01:52.939Z,4.45
2022-10-21T02:04:21.874Z,4.32
2022-10-21T02:06:49.783Z,4.63
2022-10-21T02:09:17.489Z,4.63
2022-10-21T02:11:48.086Z,5.22
2022-10-21T02:14:20.716Z,4.95
2022-10-21T02:16:49.536Z,5.32
2022-10-21T02:19:20.757Z,4.65
2022-10-21T02:21:53.012Z,5.07
2022-10-21T02:24:27.301Z,4.85
2022-10-21T02:26:55.346Z,4.35
2022-10-21T02:29:27.834Z,4.38
2022-10-21T02:32:14.158Z,4.18
2022-10-21T02:34:56.603Z,4.47
2022-10-21T02:37:32.510Z,4.15
2022-10-21T02:40:06.335Z,4.75
2022-10-21T02:42:37.687Z,4.70
2022-10-21T02:45:06.636Z,4.00
2022-10-21T02:47:37.537Z,4.38
2022-10-21T02:50:07.862Z,4.20
2022-10-21T02:52:35.515Z,5.15
2022-10-21T02:55:03.171Z,4.72
2022-10-21T02:57:30.805Z,4.18
2022-10-21T02:59:58.447Z,5.20
2022-10-21T03:02:26.114Z,4.60
2022-10-21T03:04:53.821Z,4.68
2022-10-21T03:07:22.824Z,3.92
2022-10-21T03:09:50.461Z,4.18
2022-10-21T03:12:18.141Z,4.63
2022-10-21T03:14:45.792Z,4.57
2022-10-21T03:17:13.435Z,4.10
2022-10-21T03:19:41.089Z,4.60
2022-10-21T03:22:08.710Z,4.80
2022-10-21T03:24:37.691Z,4.50
2022-10-21T03:27:05.500Z,4.18
2022-10-21T03:29:33.121Z,4.80
2022-10-21T03:32:00.742Z,3.92
2022-10-21T03:34:28.385Z,4.13
2022-10-21T03:36:56.035Z,4.50
2022-10-21T03:39:23.729Z,4.03
2022-10-21T03:41:52.734Z,4.10
2022-10-21T03:44:20.403Z,3.78
2022-10-21T03:46:48.079Z,3.95
2022-10-21T03:49:21.155Z,3.92
2022-10-21T03:51:49.802Z,3.58
2022-10-21T03:54:17.827Z,3.92
2022-10-21T03:56:46.020Z,3.90
2022-10-21T03:59:15.255Z,3.78
2022-10-21T04:01:43.012Z,3.58
2022-10-21T04:04:10.677Z,3.30
2022-10-21T04:06:38.338Z,4.13
2022-10-21T04:09:06.087Z,3.55
2022-10-21T04:11:33.779Z,4.10
2022-10-21T04:14:01.470Z,3.45
2022-10-21T04:16:30.546Z,3.97
2022-10-21T04:18:58.177Z,3.10
2022-10-21T04:21:25.896Z,3.28
2022-10-21T04:23:53.515Z,3.40
2022-10-21T04:26:21.190Z,3.53
2022-10-21T04:28:48.911Z,3.40
2022-10-21T04:31:16.535Z,3.80
2022-10-21T04:33:45.557Z,3.33
2022-10-21T04:36:13.474Z,3.58
2022-10-21T04:38:41.159Z,3.38
2022-10-21T04:41:08.786Z,3.40
2022-10-21T04:43:38.016Z,2.97
2022-10-21T04:46:07.623Z,3.97
2022-10-21T04:48:37.636Z,3.30
2022-10-21T04:51:07.430Z,3.63
2022-10-21T04:53:35.336Z,3.75
2022-10-21T04:56:03.014Z,2.50
2022-10-21T04:58:30.680Z,3.20
2022-10-21T05:00:58.358Z,3.17
2022-10-21T05:03:26.143Z,3.08
2022-10-21T05:05:53.910Z,3.20
2022-10-21T05:08:23.354Z,2.63
2022-10-21T05:10:51.031Z,2.97
2022-10-21T05:13:18.716Z,2.63
2022-10-21T05:15:46.353Z,2.88
2022-10-21T05:18:13.993Z,2.45
2022-10-21T05:20:42.367Z,2.80
2022-10-21T05:23:10.086Z,2.80
2022-10-21T05:25:39.081Z,2.67
2022-10-21T05:28:06.701Z,2.80
2022-10-21T05:30:34.376Z,3.10
2022-10-21T05:33:02.103Z,2.80
2022-10-21T05:35:29.864Z,2.95
2022-10-21T05:37:57.576Z,2.92
2022-10-21T05:40:25.347Z,3.20
2022-10-21T05:42:54.398Z,3.40
2022-10-21T05:45:22.135Z,2.95
2022-10-21T05:47:49.778Z,2.50
2022-10-21T05:50:17.745Z,2.70
2022-10-21T05:52:45.426Z,2.78
2022-10-21T05:55:13.250Z,2.78
2022-10-21T05:57:41.022Z,2.50
2022-10-21T06:00:11.882Z,2.60
2022-10-21T06:02:39.876Z,2.38
2022-10-21T06:05:08.505Z,2.33
2022-10-21T06:07:36.544Z,2.67
2022-10-21T06:10:05.071Z,2.45
2022-10-21T06:12:32.902Z,2.53
2022-10-21T06:15:00.591Z,2.55
2022-10-21T06:17:29.602Z,2.28
2022-10-21T06:19:57.327Z,2.53
2022-10-21T06:22:24.995Z,2.55
2022-10-21T06:24:52.682Z,2.13
2022-10-21T06:27:20.438Z,2.72
2022-10-21T06:29:48.309Z,1.85
2022-10-21T06:32:15.990Z,2.10
2022-10-21T06:34:44.977Z,2.20
2022-10-21T06:37:12.684Z,2.25
2022-10-21T06:39:40.287Z,2.13
2022-10-21T06:42:07.887Z,2.28
2022-10-21T06:44:35.577Z,2.30
2022-10-21T06:47:03.230Z,2.10
2022-10-21T06:49:31.351Z,2.58
2022-10-21T06:52:00.659Z,2.10
2022-10-21T06:54:28.615Z,2.15
2022-10-21T06:56:56.247Z,2.70
2022-10-21T06:59:23.883Z,2.10
2022-10-21T07:02:06.898Z,2.22
2022-10-21T07:04:34.647Z,1.90
2022-10-21T07:07:03.697Z,2.50
2022-10-21T07:09:31.672Z,2.10
2022-10-21T07:12:01.379Z,1.92
2022-10-21T07:14:29.293Z,1.85
2022-10-21T07:16:56.954Z,2.17
2022-10-21T07:19:24.632Z,2.58
2022-10-21T07:21:52.364Z,2.08
2022-10-21T07:24:22.696Z,1.88
2022-10-21T07:26:51.004Z,2.17
2022-10-21T07:29:19.071Z,1.83
2022-10-21T07:31:46.806Z,1.80
2022-10-21T07:34:14.483Z,1.80
2022-10-21T07:36:44.987Z,2.15
2022-10-21T07:39:15.741Z,2.08
2022-10-21T07:41:47.264Z,2.05
2022-10-21T07:44:15.463Z,2.50
2022-10-21T07:46:45.413Z,1.90
2022-10-21T07:49:14.011Z,2.15
2022-10-21T07:51:42.114Z,2.55
2022-10-21T07:54:10.070Z,2.40
2022-10-21T07:56:41.301Z,2.60
2022-10-21T07:59:13.118Z,2.55
2022-10-21T08:01:44.336Z,2.47
2022-10-21T08:04:13.941Z,2.00
2022-10-21T08:06:41.778Z,2.05
2022-10-21T08:09:09.579Z,1.83
2022-10-21T08:11:37.287Z,2.03
2022-10-21T08:14:06.660Z,2.20
2022-10-21T08:16:36.030Z,1.73
2022-10-21T08:19:05.642Z,2.05
2022-10-21T08:21:33.678Z,1.63
2022-10-21T08:24:03.552Z,1.90
2022-10-21T08:26:31.233Z,1.90
2022-10-21T08:31:33.159Z,2.83
2022-10-21T08:34:02.188Z,1.98
2022-10-21T08:36:29.981Z,1.77
2022-10-21T08:38:59.399Z,2.15
2022-10-21T08:42:03.159Z,1.90
2022-10-21T08:44:38.011Z,1.85
2022-10-21T08:47:12.817Z,1.92
2022-10-21T08:49:52.627Z,2.28
2022-10-21T08:52:23.794Z,3.33
2022-10-21T08:54:57.903Z,2.40
2022-10-21T08:57:25.661Z,2.10
2022-10-21T08:59:53.896Z,2.00
2022-10-21T09:02:33.525Z,2.33
2022-10-21T09:05:20.397Z,2.00
2022-10-21T09:07:56.042Z,2.03
2022-10-21T09:10:39.326Z,2.10
2022-10-21T09:13:14.803Z,2.20
2022-10-21T09:15:53.539Z,2.10
2022-10-21T09:18:34.054Z,2.20
2022-10-21T09:21:10.531Z,2.00
2022-10-21T09:23:59.733Z,2.15
2022-10-21T09:26:42.354Z,2.05
2022-10-21T09:29:25.140Z,1.42
2022-10-21T09:31:57.255Z,1.90
2022-10-21T09:34:38.489Z,2.15
2022-10-21T09:37:13.572Z,2.10
2022-10-21T09:39:45.921Z,2.00
2022-10-21T09:42:35.241Z,2.55
2022-10-21T09:45:02.153Z,2.25
2022-10-21T09:47:29.892Z,1.95
2022-10-21T09:50:07.295Z,1.60
2022-10-21T09:52:38.312Z,1.90
2022-10-21T09:55:07.132Z,2.00
2022-10-21T09:57:45.752Z,1.90
2022-10-21T10:00:14.352Z,1.98
2022-10-21T10:02:45.117Z,1.83
2022-10-21T10:05:38.247Z,2.38
2022-10-21T10:08:30.188Z,1.80
2022-10-21T10:11:11.735Z,2.53
2022-10-21T10:13:42.230Z,2.28
2022-10-21T10:16:22.288Z,2.08
2022-10-21T10:18:51.974Z,1.85
2022-10-21T10:21:20.819Z,1.90
2022-10-21T10:23:52.644Z,2.70
2022-10-21T10:26:28.524Z,2.42
2022-10-21T10:28:59.126Z,2.05
2022-10-21T10:31:32.567Z,2.28
2022-10-21T10:34:04.933Z,2.40
2022-10-21T10:36:37.362Z,1.95
2022-10-21T10:39:09.766Z,2.55
2022-10-21T10:41:40.241Z,2.30
2022-10-21T10:44:19.523Z,2.67
2022-10-21T10:46:54.386Z,2.45
2022-10-21T10:49:22.969Z,2.55
2022-10-21T10:52:08.110Z,2.20
2022-10-21T10:54:37.883Z,2.47
2022-10-21T10:57:11.066Z,2.90
2022-10-21T10:59:43.270Z,2.58
2022-10-21T11:02:35.032Z,2.50
2022-10-21T11:05:17.766Z,2.53
2022-10-21T11:07:48.546Z,2.90
2022-10-21T11:10:29.519Z,2.70
2022-10-21T11:12:57.672Z,2.53
2022-10-21T11:15:32.532Z,3.55
2022-10-21T11:18:23.195Z,2.40
2022-10-21T11:21:00.842Z,2.60
2022-10-21T11:24:08.732Z,2.47
2022-10-21T11:26:45.408Z,3.03
2022-10-21T11:32:10.816Z,1.85
2022-10-21T11:34:49.436Z,1.77
2022-10-21T11:37:25.914Z,2.00
2022-10-21T11:39:59.838Z,1.90
2022-10-21T11:42:35.799Z,1.65
2022-10-21T11:45:25.657Z,2.33
2022-10-21T11:48:00.009Z,1.80
2022-10-21T11:50:35.338Z,1.63
2022-10-21T11:53:17.863Z,1.70
2022-10-21T11:55:52.972Z,1.80
2022-10-21T11:58:30.970Z,1.95
2022-10-21T12:01:11.137Z,2.53
2022-10-21T12:03:58.443Z,1.60
2022-10-21T12:06:34.211Z,2.00
2022-10-21T12:09:07.367Z,2.30
2022-10-21T12:11:39.899Z,1.50
2022-10-21T12:14:31.063Z,1.98
2022-10-21T12:17:03.036Z,1.75
2022-10-21T12:19:31.255Z,1.42
2022-10-21T12:21:59.515Z,1.70
2022-10-21T12:24:40.974Z,2.03
2022-10-21T12:27:17.552Z,1.50
2022-10-21T12:29:57.262Z,1.80
2022-10-21T12:32:32.683Z,1.25
2022-10-21T12:35:01.860Z,1.60
2022-10-21T12:38:08.689Z,1.40
2022-10-21T12:40:39.954Z,1.40
2022-10-21T12:43:19.769Z,1.85
2022-10-21T12:46:02.228Z,1.60
2022-10-21T12:48:36.277Z,1.77
2022-10-21T12:51:07.755Z,3.13
2022-10-21T12:53:39.930Z,1.42
2022-10-21T12:56:09.956Z,1.50
2022-10-21T12:58:42.329Z,1.27
2022-10-21T13:01:40.787Z,1.27
2022-10-21T13:04:42.093Z,1.20
2022-10-21T13:07:35.971Z,1.55
2022-10-21T13:10:17.459Z,1.02
2022-10-21T13:12:47.519Z,1.20
2022-10-21T13:15:46.626Z,1.23
2022-10-21T13:18:54.293Z,1.20
2022-10-21T13:21:36.435Z,1.15
2022-10-21T13:24:20.294Z,1.55
2022-10-21T13:26:50.792Z,1.42
2022-10-21T13:29:48.007Z,1.30
2022-10-21T13:32:28.229Z,1.77
2022-10-21T13:35:19.251Z,1.98
2022-10-21T13:37:55.397Z,1.60
2022-10-21T13:40:26.898Z,1.30
2022-10-21T13:42:59.024Z,1.15
2022-10-21T13:45:30.599Z,2.13
2022-10-21T13:48:07.334Z,1.20
2022-10-21T13:50:40.690Z,1.30
2022-10-21T13:53:30.312Z,1.60
2022-10-21T13:56:00.654Z,1.83
2022-10-21T13:58:30.211Z,1.50
2022-10-21T14:00:59.115Z,1.80
2022-10-21T14:03:28.053Z,1.77
2022-10-21T14:06:00.129Z,1.23
2022-10-21T14:08:31.818Z,1.23
2022-10-21T14:11:03.202Z,1.02
2022-10-21T14:13:35.944Z,1.15
2022-10-21T14:16:05.136Z,1.27
2022-10-21T14:18:37.242Z,1.60
2022-10-21T14:21:09.645Z,1.40
2022-10-21T14:23:37.438Z,1.40
2022-10-21T14:26:08.321Z,1.00
2022-10-21T14:28:37.842Z,1.15
2022-10-21T14:31:11.592Z,1.30
2022-10-21T14:33:43.291Z,1.20
2022-10-21T14:36:16.120Z,1.05
2022-10-21T14:38:52.881Z,1.17
2022-10-21T14:41:25.444Z,0.98
2022-10-21T14:43:55.332Z,1.33
2022-10-21T14:46:23.248Z,1.55
2022-10-21T14:48:54.809Z,0.90
2022-10-21T14:51:24.278Z,1.02
2022-10-21T14:53:55.908Z,1.60
2022-10-21T14:56:29.310Z,1.17
2022-10-21T14:58:59.228Z,1.00
2022-10-21T15:01:27.917Z,1.20
2022-10-21T15:03:57.224Z,0.88
2022-10-21T15:06:28.150Z,1.45
2022-10-21T15:09:02.120Z,1.13
2022-10-21T15:11:39.319Z,1.17
2022-10-21T15:14:18.711Z,1.00
2022-10-21T15:16:49.484Z,1.20
2022-10-21T15:19:19.839Z,1.10
2022-10-21T15:21:51.871Z,1.15
2022-10-21T15:24:22.772Z,1.77
2022-10-21T15:26:53.546Z,4.72
2022-10-21T15:29:27.878Z,3.92
2022-10-21T15:31:58.250Z,3.22
2022-10-21T15:34:26.324Z,3.92
2022-10-21T15:36:55.383Z,3.53
2022-10-21T15:39:23.360Z,2.70
2022-10-21T15:41:54.965Z,3.22
2022-10-21T15:44:25.920Z,2.97
2022-10-21T15:47:00.426Z,3.67
2022-10-21T15:49:32.118Z,2.17
2022-10-21T15:52:01.770Z,1.83
2022-10-21T15:54:29.500Z,2.15
2022-10-21T15:56:59.430Z,1.85
2022-10-21T15:59:29.510Z,1.67
2022-10-21T16:01:57.951Z,1.60
2022-10-21T16:04:25.985Z,1.88
2022-10-21T16:06:54.723Z,1.88
2022-10-21T16:09:25.752Z,1.40
2022-10-21T16:12:00.364Z,1.80
2022-10-21T16:14:30.147Z,1.48
2022-10-21T16:16:59.241Z,1.40
2022-10-21T16:19:27.346Z,1.27
2022-10-21T16:21:55.057Z,1.20
2022-10-21T16:24:24.082Z,1.33
2022-10-21T16:26:51.735Z,1.65
2022-10-21T16:29:21.746Z,1.23
2022-10-21T16:31:49.672Z,1.60
2022-10-21T16:34:17.680Z,1.40
2022-10-21T16:36:45.384Z,1.20
2022-10-21T16:39:15.560Z,1.05
2022-10-21T16:41:44.613Z,1.52
2022-10-21T16:44:12.305Z,1.20
2022-10-21T16:46:42.580Z,1.30
2022-10-21T16:49:13.741Z,1.10
2022-10-21T16:51:42.956Z,1.35
2022-10-21T16:54:11.244Z,1.80
2022-10-21T16:56:38.924Z,1.42
2022-10-21T16:59:08.097Z,1.65
2022-10-21T17:01:35.810Z,1.33
2022-10-21T17:04:03.642Z,1.02
2022-10-21T17:06:31.937Z,1.40
2022-10-21T17:08:59.714Z,1.83
2022-10-21T17:11:32.987Z,1.45
2022-10-21T17:14:00.823Z,1.80
2022-10-21T17:16:29.886Z,2.20
2022-10-21T17:18:57.726Z,1.60
2022-10-21T17:21:27.125Z,1.75
2022-10-21T17:23:55.830Z,1.75
2022-10-21T17:26:23.653Z,2.20
2022-10-21T17:28:51.804Z,1.60
2022-10-21T17:31:21.953Z,2.03
2022-10-21T17:33:52.702Z,1.60
2022-10-21T17:36:21.716Z,1.50
2022-10-21T17:38:49.403Z,1.77
2022-10-21T17:41:20.318Z,1.40
2022-10-21T17:43:48.271Z,1.70
2022-10-21T17:46:19.534Z,1.60
2022-10-21T17:48:51.887Z,2.58
2022-10-21T17:51:22.215Z,1.85
2022-10-21T17:53:50.233Z,1.77
2022-10-21T17:56:18.705Z,1.58
2022-10-21T17:58:46.719Z,1.15
2022-10-21T18:01:15.088Z,1.58
2022-10-21T18:03:42.849Z,1.50
2022-10-21T18:06:12.988Z,1.65
2022-10-21T18:08:40.705Z,1.20
2022-10-21T18:11:10.250Z,1.60
2022-10-21T18:13:38.140Z,1.55
2022-10-21T18:16:07.767Z,1.50
2022-10-21T18:18:36.622Z,1.38
2022-10-21T18:21:05.925Z,1.60
2022-10-21T18:23:35.187Z,1.60
2022-10-21T18:26:04.016Z,1.65
2022-10-21T18:28:32.410Z,1.45
2022-10-21T18:31:00.326Z,1.77
2022-10-21T18:33:28.398Z,1.25
2022-10-21T18:35:56.108Z,1.60
2022-10-21T18:38:24.038Z,1.20
2022-10-21T18:41:02.193Z,1.30
2022-10-21T18:43:40.793Z,1.33
2022-10-21T18:46:08.522Z,1.20
2022-10-21T18:48:36.970Z,1.90
2022-10-21T18:51:08.209Z,1.75
2022-10-21T18:53:37.070Z,1.10
2022-10-21T18:56:08.607Z,2.03
2022-10-21T18:58:37.657Z,1.08
2022-10-21T19:01:06.172Z,2.28
2022-10-21T19:03:33.815Z,1.20
2022-10-21T19:06:16.533Z,1.60
2022-10-21T19:08:44.344Z,1.20
2022-10-21T19:11:13.508Z,1.38
2022-10-21T19:13:41.183Z,1.45
2022-10-21T19:16:11.748Z,1.35
2022-10-21T19:18:39.413Z,1.60
2022-10-21T19:21:07.626Z,1.50
2022-10-21T19:23:35.637Z,1.70
2022-10-21T19:26:04.083Z,1.70
2022-10-21T19:28:33.713Z,1.40
2022-10-21T19:31:01.534Z,1.55
2022-10-21T19:33:30.491Z,1.80
2022-10-21T19:36:00.194Z,1.65
2022-10-21T19:38:43.176Z,1.63
2022-10-21T19:41:13.721Z,1.63
2022-10-21T19:43:42.747Z,1.58
2022-10-21T19:46:15.454Z,1.60
2022-10-21T19:48:43.178Z,1.52
2022-10-21T19:51:15.175Z,1.25
2022-10-21T19:53:44.969Z,1.73
2022-10-21T19:56:13.879Z,1.45
2022-10-21T19:58:46.325Z,1.92
2022-10-21T20:01:16.452Z,1.35
2022-10-21T20:03:45.949Z,1.17
2022-10-21T20:06:15.549Z,1.70
2022-10-21T20:08:43.762Z,1.63
2022-10-21T20:11:13.995Z,1.50
2022-10-21T20:13:44.246Z,1.50
2022-10-21T20:16:16.047Z,1.60
2022-10-21T20:18:43.694Z,1.58
2022-10-21T20:21:11.461Z,1.85
2022-10-21T20:23:39.148Z,2.20
2022-10-21T20:26:08.818Z,1.60
2022-10-21T20:28:36.854Z,1.50
2022-10-21T20:31:07.428Z,1.70
2022-10-21T20:33:37.583Z,1.35
2022-10-21T20:36:05.547Z,1.30
2022-10-21T20:38:33.925Z,1.60
2022-10-21T20:41:05.915Z,1.65
2022-10-21T20:43:34.815Z,2.00
2022-10-21T20:46:02.972Z,1.63
2022-10-21T20:48:33.052Z,1.42
2022-10-21T20:51:04.972Z,1.35
2022-10-21T20:53:32.869Z,1.48
2022-10-21T20:56:00.903Z,1.48
2022-10-21T20:58:28.651Z,1.50
2022-10-21T21:00:56.587Z,1.33
2022-10-21T21:03:24.355Z,1.60
2022-10-21T21:05:53.433Z,1.35
2022-10-21T21:08:21.135Z,1.35
2022-10-21T21:10:48.784Z,1.48
2022-10-21T21:13:16.475Z,1.67
2022-10-21T21:15:44.175Z,1.52
2022-10-21T21:18:14.052Z,1.55
2022-10-21T21:20:41.663Z,1.20
2022-10-21T21:23:10.687Z,1.70
2022-10-21T21:25:38.363Z,1.25
2022-10-21T21:28:06.050Z,1.67
2022-10-21T21:30:33.719Z,1.70
2022-10-21T21:33:01.384Z,1.45
2022-10-21T21:35:29.497Z,1.63
2022-10-21T21:37:57.117Z,1.20
2022-10-21T21:40:26.168Z,1.38
2022-10-21T21:42:53.832Z,1.65
2022-10-21T21:45:21.502Z,1.60
2022-10-21T21:47:49.162Z,1.30
2022-10-21T21:50:16.828Z,1.48
2022-10-21T21:52:44.890Z,1.30
2022-10-21T21:55:12.714Z,1.60
2022-10-21T21:57:41.719Z,1.70
2022-10-21T22:00:10.848Z,1.63
2022-10-21T22:02:38.906Z,1.50
2022-10-21T22:05:07.605Z,1.55
2022-10-21T22:07:35.242Z,1.55
2022-10-21T22:10:02.924Z,1.60
2022-10-21T22:12:30.658Z,1.35
2022-10-21T22:14:59.678Z,1.50
2022-10-21T22:17:27.338Z,1.80
2022-10-21T22:19:55.143Z,1.75
2022-10-21T22:22:22.805Z,1.58
2022-10-21T22:24:50.593Z,1.45
2022-10-21T22:27:18.324Z,1.75
2022-10-21T22:29:45.979Z,1.42
2022-10-21T22:32:14.990Z,1.95
2022-10-21T22:34:42.638Z,1.70
2022-10-21T22:37:10.317Z,1.60
2022-10-21T22:39:38.049Z,1.38
2022-10-21T22:42:05.700Z,1.80
2022-10-21T22:44:33.384Z,1.33
2022-10-21T22:47:01.059Z,1.50
2022-10-21T22:49:30.100Z,1.90
2022-10-21T22:51:57.766Z,1.77
2022-10-21T22:54:48.157Z,1.50
2022-10-21T22:57:13.189Z,1.80
2022-10-21T22:59:40.906Z,1.63
2022-10-21T23:02:08.540Z,1.40
2022-10-21T23:04:37.599Z,1.70
2022-10-21T23:07:05.323Z,1.55
2022-10-21T23:09:33.045Z,1.70
2022-10-21T23:12:00.680Z,1.58
2022-10-21T23:14:28.518Z,1.98
2022-10-21T23:16:56.180Z,1.75
2022-10-21T23:19:23.897Z,1.90
2022-10-21T23:21:52.953Z,1.50
2022-10-21T23:24:20.647Z,1.48
2022-10-21T23:26:48.283Z,1.65
2022-10-21T23:29:16.066Z,1.70
2022-10-21T23:31:43.749Z,1.52
2022-10-21T23:34:11.431Z,1.80
2022-10-21T23:36:39.121Z,1.63
2022-10-21T23:39:08.227Z,2.20
2022-10-21T23:41:36.010Z,1.60
2022-10-21T23:44:03.723Z,1.40
2022-10-21T23:46:31.487Z,1.75
2022-10-21T23:48:59.144Z,2.03
2022-10-21T23:51:26.929Z,1.63
2022-10-21T23:53:54.587Z,1.70
2022-10-21T23:56:23.786Z,1.73
2022-10-21T23:58:51.507Z,1.52
